Weather at Bellbrae private airstrip

Public forecast

Using degrees Celsius for public forecast. Weather courtesy of forecast.io.

Closest aviation weather report (METAR) to Bellbrae private airstrip

Report is more than 6 hours old.

Closest report is Avalon Airport, 20.5 nm (37.9 km) NNE.

2024/06/24 06:30 (retrieved 1 day ago)

YMAV 240630Z AUTO 02013KT 9999 // NCD 12/05 Q1013 RF000/0000

Closest aviation forecast (TAF) to Bellbrae private airstrip

Forecast is more than 12 hours old.

Closest forecast is Avalon Airport, 20.5 nm (37.9 km) NNE.

2024/06/24 18:36 (retrieved 15 hours ago)

TAF TAF YMAV 241732Z 2418/2518 01014KT CAVOK FM250900 04008KT 9999 SCT040 FM251500 02010KT 9999 -SHRA SCT045